Aviation Digital Data Service (ADDS)

Output produced by METARs form (1402 UTC 20 January 2017)
found at http://www.aviationweather.gov/adds/metars/
 
KGED 201354Z AUTO 00000KT 4SM BR CLR 04/03 A3000 RMK AO2 SLP159 T00390028